sensor_id;sensor_type;location;lat;lon;timestamp;temperature;humidity
36800;DHT22;22752;51.960;5.886;2022-11-15T00:00:25;8.40;99.90
36800;DHT22;22752;51.960;5.886;2022-11-15T00:02:55;8.40;99.90
36800;DHT22;22752;51.960;5.886;2022-11-15T00:05:21;8.40;99.90
36800;DHT22;22752;51.960;5.886;2022-11-15T00:07:46;8.40;99.90
36800;DHT22;22752;51.960;5.886;2022-11-15T00:10:12;8.50;99.90
36800;DHT22;22752;51.960;5.886;2022-11-15T00:12:37;8.50;99.90
36800;DHT22;22752;51.960;5.886;2022-11-15T00:15:04;8.50;99.90
36800;DHT22;22752;51.960;5.886;2022-11-15T00:17:29;8.60;99.90
36800;DHT22;22752;51.960;5.886;2022-11-15T00:19:55;8.60;99.90
36800;DHT22;22752;51.960;5.886;2022-11-15T00:22:21;8.60;99.90
36800;DHT22;22752;51.960;5.886;2022-11-15T00:24:47;8.60;99.90
36800;DHT22;22752;51.960;5.886;2022-11-15T00:27:12;8.60;99.90
36800;DHT22;22752;51.960;5.886;2022-11-15T00:29:38;8.60;99.90
36800;DHT22;22752;51.960;5.886;2022-11-15T00:32:11;8.60;99.90
36800;DHT22;22752;51.960;5.886;2022-11-15T00:34:38;8.60;99.90
36800;DHT22;22752;51.960;5.886;2022-11-15T00:37:04;8.60;99.90
36800;DHT22;22752;51.960;5.886;2022-11-15T00:39:31;8.60;99.90
36800;DHT22;22752;51.960;5.886;2022-11-15T00:41:56;8.60;99.90
36800;DHT22;22752;51.960;5.886;2022-11-15T00:44:22;8.60;99.90
36800;DHT22;22752;51.960;5.886;2022-11-15T00:46:47;8.60;99.90
36800;DHT22;22752;51.960;5.886;2022-11-15T00:49:13;8.60;99.90
36800;DHT22;22752;51.960;5.886;2022-11-15T00:51:39;8.60;99.90
36800;DHT22;22752;51.960;5.886;2022-11-15T00:54:04;8.60;99.90
36800;DHT22;22752;51.960;5.886;2022-11-15T00:56:30;8.60;99.90
36800;DHT22;22752;51.960;5.886;2022-11-15T00:58:55;8.60;99.90
36800;DHT22;22752;51.960;5.886;2022-11-15T01:01:21;8.60;99.90
36800;DHT22;22752;51.960;5.886;2022-11-15T01:03:47;8.60;99.90
36800;DHT22;22752;51.960;5.886;2022-11-15T01:06:12;8.50;99.90
36800;DHT22;22752;51.960;5.886;2022-11-15T01:08:39;8.60;99.90
36800;DHT22;22752;51.960;5.886;2022-11-15T01:11:08;8.60;99.90
36800;DHT22;22752;51.960;5.886;2022-11-15T01:13:35;8.60;99.90
36800;DHT22;22752;51.960;5.886;2022-11-15T01:16:08;8.60;99.90
36800;DHT22;22752;51.960;5.886;2022-11-15T01:18:35;8.60;99.90
36800;DHT22;22752;51.960;5.886;2022-11-15T01:21:15;8.60;99.90
36800;DHT22;22752;51.960;5.886;2022-11-15T01:23:41;8.70;99.90
36800;DHT22;22752;51.960;5.886;2022-11-15T01:26:10;8.70;99.90
36800;DHT22;22752;51.960;5.886;2022-11-15T01:28:37;8.70;99.90
36800;DHT22;22752;51.960;5.886;2022-11-15T01:31:09;8.70;99.90
36800;DHT22;22752;51.960;5.886;2022-11-15T01:33:36;8.70;99.90
36800;DHT22;22752;51.960;5.886;2022-11-15T01:36:11;8.70;99.90
36800;DHT22;22752;51.960;5.886;2022-11-15T01:38:37;8.70;99.90
36800;DHT22;22752;51.960;5.886;2022-11-15T01:41:03;8.70;99.90
36800;DHT22;22752;51.960;5.886;2022-11-15T01:43:32;8.80;99.90
36800;DHT22;22752;51.960;5.886;2022-11-15T01:46:08;8.80;99.90
36800;DHT22;22752;51.960;5.886;2022-11-15T01:48:40;8.90;99.90
36800;DHT22;22752;51.960;5.886;2022-11-15T01:51:09;8.90;99.90
36800;DHT22;22752;51.960;5.886;2022-11-15T01:53:37;9.00;99.90
36800;DHT22;22752;51.960;5.886;2022-11-15T01:56:06;9.00;99.90
36800;DHT22;22752;51.960;5.886;2022-11-15T01:58:34;9.00;99.90
36800;DHT22;22752;51.960;5.886;2022-11-15T02:01:00;9.00;99.90
36800;DHT22;22752;51.960;5.886;2022-11-15T02:03:39;9.10;99.90
36800;DHT22;22752;51.960;5.886;2022-11-15T02:06:07;9.10;99.90
36800;DHT22;22752;51.960;5.886;2022-11-15T02:08:33;9.10;99.90
36800;DHT22;22752;51.960;5.886;2022-11-15T02:10:59;9.10;99.90
36800;DHT22;22752;51.960;5.886;2022-11-15T02:13:24;9.20;99.90
36800;DHT22;22752;51.960;5.886;2022-11-15T02:18:57;9.20;99.90
36800;DHT22;22752;51.960;5.886;2022-11-15T02:21:40;9.30;99.90
36800;DHT22;22752;51.960;5.886;2022-11-15T02:30:04;9.30;99.90
36800;DHT22;22752;51.960;5.886;2022-11-15T02:32:43;9.40;99.90
36800;DHT22;22752;51.960;5.886;2022-11-15T02:41:06;9.50;99.90
36800;DHT22;22752;51.960;5.886;2022-11-15T02:44:21;9.50;99.90
36800;DHT22;22752;51.960;5.886;2022-11-15T02:49:26;9.60;99.90
36800;DHT22;22752;51.960;5.886;2022-11-15T02:51:55;9.60;99.90
36800;DHT22;22752;51.960;5.886;2022-11-15T02:54:26;9.60;99.90
36800;DHT22;22752;51.960;5.886;2022-11-15T02:56:54;9.70;99.90
36800;DHT22;22752;51.960;5.886;2022-11-15T03:08:13;9.80;99.90
36800;DHT22;22752;51.960;5.886;2022-11-15T03:11:07;9.80;99.90
36800;DHT22;22752;51.960;5.886;2022-11-15T03:13:36;9.80;99.90
36800;DHT22;22752;51.960;5.886;2022-11-15T03:16:12;9.80;99.90
36800;DHT22;22752;51.960;5.886;2022-11-15T03:18:44;9.80;99.90
36800;DHT22;22752;51.960;5.886;2022-11-15T03:21:14;9.90;99.90
36800;DHT22;22752;51.960;5.886;2022-11-15T03:23:41;9.90;99.90
36800;DHT22;22752;51.960;5.886;2022-11-15T03:26:09;9.90;99.90
36800;DHT22;22752;51.960;5.886;2022-11-15T03:31:08;10.00;99.90
36800;DHT22;22752;51.960;5.886;2022-11-15T03:33:56;10.10;99.90
36800;DHT22;22752;51.960;5.886;2022-11-15T03:36:25;10.10;99.90
36800;DHT22;22752;51.960;5.886;2022-11-15T03:38:54;10.10;99.90
36800;DHT22;22752;51.960;5.886;2022-11-15T03:41:27;10.20;99.90
36800;DHT22;22752;51.960;5.886;2022-11-15T03:44:01;10.20;99.90
36800;DHT22;22752;51.960;5.886;2022-11-15T03:46:37;10.30;99.90
36800;DHT22;22752;51.960;5.886;2022-11-15T03:49:18;10.40;99.90
36800;DHT22;22752;51.960;5.886;2022-11-15T03:51:45;10.40;99.90
36800;DHT22;22752;51.960;5.886;2022-11-15T03:54:12;10.40;99.90
36800;DHT22;22752;51.960;5.886;2022-11-15T03:56:38;10.50;99.90
36800;DHT22;22752;51.960;5.886;2022-11-15T03:59:04;10.50;99.90
36800;DHT22;22752;51.960;5.886;2022-11-15T04:01:29;10.50;99.90
36800;DHT22;22752;51.960;5.886;2022-11-15T04:03:55;10.60;99.90
36800;DHT22;22752;51.960;5.886;2022-11-15T04:06:21;10.60;99.90
36800;DHT22;22752;51.960;5.886;2022-11-15T04:08:46;10.70;99.90
36800;DHT22;22752;51.960;5.886;2022-11-15T04:11:12;10.70;99.90
36800;DHT22;22752;51.960;5.886;2022-11-15T04:13:37;10.70;99.90
36800;DHT22;22752;51.960;5.886;2022-11-15T04:16:03;10.80;99.90
36800;DHT22;22752;51.960;5.886;2022-11-15T04:18:29;10.80;99.90
36800;DHT22;22752;51.960;5.886;2022-11-15T04:20:54;10.80;99.90
36800;DHT22;22752;51.960;5.886;2022-11-15T04:23:38;10.80;99.90
36800;DHT22;22752;51.960;5.886;2022-11-15T04:26:16;10.90;99.90
36800;DHT22;22752;51.960;5.886;2022-11-15T04:28:43;10.90;99.90
36800;DHT22;22752;51.960;5.886;2022-11-15T04:31:28;11.00;99.90
36800;DHT22;22752;51.960;5.886;2022-11-15T04:33:53;10.90;99.90
36800;DHT22;22752;51.960;5.886;2022-11-15T04:36:20;10.90;99.90
36800;DHT22;22752;51.960;5.886;2022-11-15T04:39:04;10.90;99.90
36800;DHT22;22752;51.960;5.886;2022-11-15T04:41:30;10.90;99.90
36800;DHT22;22752;51.960;5.886;2022-11-15T04:43:56;10.90;99.90
36800;DHT22;22752;51.960;5.886;2022-11-15T04:46:22;10.90;99.90
36800;DHT22;22752;51.960;5.886;2022-11-15T04:48:49;11.00;99.90
36800;DHT22;22752;51.960;5.886;2022-11-15T04:51:15;11.00;99.90
36800;DHT22;22752;51.960;5.886;2022-11-15T04:53:40;11.00;99.90
36800;DHT22;22752;51.960;5.886;2022-11-15T04:56:06;11.00;99.90
36800;DHT22;22752;51.960;5.886;2022-11-15T04:58:32;11.00;99.90
36800;DHT22;22752;51.960;5.886;2022-11-15T05:00:57;11.00;99.90
36800;DHT22;22752;51.960;5.886;2022-11-15T05:03:23;11.00;99.90
36800;DHT22;22752;51.960;5.886;2022-11-15T05:06:07;11.00;99.90
36800;DHT22;22752;51.960;5.886;2022-11-15T05:08:33;11.10;99.90
36800;DHT22;22752;51.960;5.886;2022-11-15T05:10:58;11.10;99.90
36800;DHT22;22752;51.960;5.886;2022-11-15T05:13:24;11.10;99.90
36800;DHT22;22752;51.960;5.886;2022-11-15T05:15:50;11.10;99.90
36800;DHT22;22752;51.960;5.886;2022-11-15T05:18:15;11.20;99.90
36800;DHT22;22752;51.960;5.886;2022-11-15T05:20:41;11.20;99.90
36800;DHT22;22752;51.960;5.886;2022-11-15T05:23:07;11.20;99.90
36800;DHT22;22752;51.960;5.886;2022-11-15T05:25:33;11.20;99.90
36800;DHT22;22752;51.960;5.886;2022-11-15T05:27:58;11.20;99.90
36800;DHT22;22752;51.960;5.886;2022-11-15T05:30:24;11.20;99.90
36800;DHT22;22752;51.960;5.886;2022-11-15T05:32:50;11.30;99.90
36800;DHT22;22752;51.960;5.886;2022-11-15T05:35:46;11.30;99.90
36800;DHT22;22752;51.960;5.886;2022-11-15T05:38:14;11.30;99.90
36800;DHT22;22752;51.960;5.886;2022-11-15T05:40:40;11.30;99.90
36800;DHT22;22752;51.960;5.886;2022-11-15T05:43:06;11.20;99.90
36800;DHT22;22752;51.960;5.886;2022-11-15T05:45:32;11.30;99.90
36800;DHT22;22752;51.960;5.886;2022-11-15T05:48:01;11.30;99.90
36800;DHT22;22752;51.960;5.886;2022-11-15T05:50:29;11.40;99.90
36800;DHT22;22752;51.960;5.886;2022-11-15T05:52:55;11.40;99.90
36800;DHT22;22752;51.960;5.886;2022-11-15T05:55:21;11.40;99.90
36800;DHT22;22752;51.960;5.886;2022-11-15T05:57:47;11.40;99.90
36800;DHT22;22752;51.960;5.886;2022-11-15T06:00:13;11.40;99.90
36800;DHT22;22752;51.960;5.886;2022-11-15T06:02:38;11.40;99.90
36800;DHT22;22752;51.960;5.886;2022-11-15T06:05:04;11.40;99.90
36800;DHT22;22752;51.960;5.886;2022-11-15T06:07:30;11.40;99.90
36800;DHT22;22752;51.960;5.886;2022-11-15T06:09:56;11.40;99.90
36800;DHT22;22752;51.960;5.886;2022-11-15T06:12:21;11.40;99.90
36800;DHT22;22752;51.960;5.886;2022-11-15T06:14:47;11.40;99.90
36800;DHT22;22752;51.960;5.886;2022-11-15T06:17:13;11.40;99.90
36800;DHT22;22752;51.960;5.886;2022-11-15T06:19:38;11.40;99.90
36800;DHT22;22752;51.960;5.886;2022-11-15T06:22:04;11.50;99.90
36800;DHT22;22752;51.960;5.886;2022-11-15T06:24:29;11.50;99.90
36800;DHT22;22752;51.960;5.886;2022-11-15T06:26:55;11.50;99.90
36800;DHT22;22752;51.960;5.886;2022-11-15T06:29:21;11.40;99.90
36800;DHT22;22752;51.960;5.886;2022-11-15T06:31:46;11.40;99.90
36800;DHT22;22752;51.960;5.886;2022-11-15T06:34:12;11.40;99.90
36800;DHT22;22752;51.960;5.886;2022-11-15T06:36:38;11.40;99.90
36800;DHT22;22752;51.960;5.886;2022-11-15T06:39:04;11.40;99.90
36800;DHT22;22752;51.960;5.886;2022-11-15T06:41:30;11.40;99.90
36800;DHT22;22752;51.960;5.886;2022-11-15T06:43:57;11.40;99.90
36800;DHT22;22752;51.960;5.886;2022-11-15T06:46:22;11.40;99.90
36800;DHT22;22752;51.960;5.886;2022-11-15T06:48:51;11.40;99.90
36800;DHT22;22752;51.960;5.886;2022-11-15T06:51:16;11.40;99.90
36800;DHT22;22752;51.960;5.886;2022-11-15T06:53:42;11.40;99.90
36800;DHT22;22752;51.960;5.886;2022-11-15T06:56:08;11.40;99.90
36800;DHT22;22752;51.960;5.886;2022-11-15T06:58:34;11.40;99.90
36800;DHT22;22752;51.960;5.886;2022-11-15T07:01:03;11.40;99.90
36800;DHT22;22752;51.960;5.886;2022-11-15T07:03:29;11.40;99.90
36800;DHT22;22752;51.960;5.886;2022-11-15T07:05:56;11.40;99.90
36800;DHT22;22752;51.960;5.886;2022-11-15T07:08:23;11.40;99.90
36800;DHT22;22752;51.960;5.886;2022-11-15T07:10:49;11.40;99.90
36800;DHT22;22752;51.960;5.886;2022-11-15T07:13:15;11.40;99.90
36800;DHT22;22752;51.960;5.886;2022-11-15T07:15:40;11.40;99.90
36800;DHT22;22752;51.960;5.886;2022-11-15T07:18:06;11.50;99.90
36800;DHT22;22752;51.960;5.886;2022-11-15T07:20:32;11.40;99.90
36800;DHT22;22752;51.960;5.886;2022-11-15T07:23:02;11.40;99.90
36800;DHT22;22752;51.960;5.886;2022-11-15T07:25:28;11.40;99.90
36800;DHT22;22752;51.960;5.886;2022-11-15T07:27:57;11.40;99.90
36800;DHT22;22752;51.960;5.886;2022-11-15T07:30:24;11.40;99.90
36800;DHT22;22752;51.960;5.886;2022-11-15T07:32:57;11.40;99.90
36800;DHT22;22752;51.960;5.886;2022-11-15T07:35:24;11.40;99.90
36800;DHT22;22752;51.960;5.886;2022-11-15T07:37:58;11.40;99.90
36800;DHT22;22752;51.960;5.886;2022-11-15T07:40:26;11.50;99.90
36800;DHT22;22752;51.960;5.886;2022-11-15T07:42:52;11.50;99.90
36800;DHT22;22752;51.960;5.886;2022-11-15T07:45:18;11.50;99.90
36800;DHT22;22752;51.960;5.886;2022-11-15T07:47:47;11.50;99.90
36800;DHT22;22752;51.960;5.886;2022-11-15T07:50:13;11.50;99.90
36800;DHT22;22752;51.960;5.886;2022-11-15T07:52:39;11.50;99.90
36800;DHT22;22752;51.960;5.886;2022-11-15T07:55:05;11.50;99.90
36800;DHT22;22752;51.960;5.886;2022-11-15T07:57:30;11.60;99.90
36800;DHT22;22752;51.960;5.886;2022-11-15T07:59:56;11.60;99.90
36800;DHT22;22752;51.960;5.886;2022-11-15T08:02:22;11.60;99.90
36800;DHT22;22752;51.960;5.886;2022-11-15T08:04:47;11.60;99.90
36800;DHT22;22752;51.960;5.886;2022-11-15T08:07:13;11.70;99.90
36800;DHT22;22752;51.960;5.886;2022-11-15T08:09:39;11.70;99.90
36800;DHT22;22752;51.960;5.886;2022-11-15T08:12:04;11.70;99.90
36800;DHT22;22752;51.960;5.886;2022-11-15T08:14:30;11.70;99.90
36800;DHT22;22752;51.960;5.886;2022-11-15T08:16:56;11.80;99.90
36800;DHT22;22752;51.960;5.886;2022-11-15T08:19:22;11.80;99.90
36800;DHT22;22752;51.960;5.886;2022-11-15T08:21:47;11.80;99.90
36800;DHT22;22752;51.960;5.886;2022-11-15T08:24:14;11.90;99.90
36800;DHT22;22752;51.960;5.886;2022-11-15T08:26:40;11.80;99.90
36800;DHT22;22752;51.960;5.886;2022-11-15T08:29:06;11.90;99.90
36800;DHT22;22752;51.960;5.886;2022-11-15T08:31:34;11.90;99.90
36800;DHT22;22752;51.960;5.886;2022-11-15T08:34:02;11.90;99.90
36800;DHT22;22752;51.960;5.886;2022-11-15T08:36:27;11.90;99.90
36800;DHT22;22752;51.960;5.886;2022-11-15T08:38:53;12.00;99.90
36800;DHT22;22752;51.960;5.886;2022-11-15T08:41:30;12.00;99.90
36800;DHT22;22752;51.960;5.886;2022-11-15T08:43:57;12.00;99.90
36800;DHT22;22752;51.960;5.886;2022-11-15T08:46:23;12.10;99.90
36800;DHT22;22752;51.960;5.886;2022-11-15T08:48:48;12.10;99.90
36800;DHT22;22752;51.960;5.886;2022-11-15T08:51:14;12.20;99.90
36800;DHT22;22752;51.960;5.886;2022-11-15T08:53:40;12.20;99.90
36800;DHT22;22752;51.960;5.886;2022-11-15T08:56:10;12.20;99.90
36800;DHT22;22752;51.960;5.886;2022-11-15T08:58:36;12.40;99.90
36800;DHT22;22752;51.960;5.886;2022-11-15T09:01:02;12.40;99.90
36800;DHT22;22752;51.960;5.886;2022-11-15T09:03:28;12.40;99.90
36800;DHT22;22752;51.960;5.886;2022-11-15T09:05:58;12.50;99.90
36800;DHT22;22752;51.960;5.886;2022-11-15T09:08:25;12.50;99.90
36800;DHT22;22752;51.960;5.886;2022-11-15T09:10:51;12.50;99.90
36800;DHT22;22752;51.960;5.886;2022-11-15T09:13:16;12.50;99.90
36800;DHT22;22752;51.960;5.886;2022-11-15T09:15:42;12.50;99.90
36800;DHT22;22752;51.960;5.886;2022-11-15T09:18:08;12.50;99.90
36800;DHT22;22752;51.960;5.886;2022-11-15T09:20:33;12.50;99.90
36800;DHT22;22752;51.960;5.886;2022-11-15T09:23:03;12.50;99.90
36800;DHT22;22752;51.960;5.886;2022-11-15T09:25:29;12.40;99.90
36800;DHT22;22752;51.960;5.886;2022-11-15T09:27:55;12.40;99.90
36800;DHT22;22752;51.960;5.886;2022-11-15T09:30:23;12.40;99.90
36800;DHT22;22752;51.960;5.886;2022-11-15T09:32:49;12.40;99.90
36800;DHT22;22752;51.960;5.886;2022-11-15T09:35:15;12.50;99.90
36800;DHT22;22752;51.960;5.886;2022-11-15T09:37:41;12.50;99.90
36800;DHT22;22752;51.960;5.886;2022-11-15T09:40:11;12.50;99.90
36800;DHT22;22752;51.960;5.886;2022-11-15T09:43:08;12.50;99.90
36800;DHT22;22752;51.960;5.886;2022-11-15T09:45:53;12.50;99.90
36800;DHT22;22752;51.960;5.886;2022-11-15T09:51:24;12.60;99.90
36800;DHT22;22752;51.960;5.886;2022-11-15T09:54:00;12.60;99.90
36800;DHT22;22752;51.960;5.886;2022-11-15T09:56:31;12.70;99.90
36800;DHT22;22752;51.960;5.886;2022-11-15T10:04:33;13.10;99.90
36800;DHT22;22752;51.960;5.886;2022-11-15T10:10:11;13.10;99.90
36800;DHT22;22752;51.960;5.886;2022-11-15T10:12:44;13.10;99.90
36800;DHT22;22752;51.960;5.886;2022-11-15T10:15:14;13.10;99.90
36800;DHT22;22752;51.960;5.886;2022-11-15T10:20:30;13.20;99.90
36800;DHT22;22752;51.960;5.886;2022-11-15T10:22:59;13.10;99.90
36800;DHT22;22752;51.960;5.886;2022-11-15T10:25:26;13.00;99.90
36800;DHT22;22752;51.960;5.886;2022-11-15T10:28:16;12.90;99.90
36800;DHT22;22752;51.960;5.886;2022-11-15T10:30:52;12.90;99.90
36800;DHT22;22752;51.960;5.886;2022-11-15T10:33:37;12.80;99.90
36800;DHT22;22752;51.960;5.886;2022-11-15T10:46:33;12.80;99.90
36800;DHT22;22752;51.960;5.886;2022-11-15T10:49:20;12.70;99.90
36800;DHT22;22752;51.960;5.886;2022-11-15T10:54:21;12.70;99.90
36800;DHT22;22752;51.960;5.886;2022-11-15T10:56:54;12.70;99.90
36800;DHT22;22752;51.960;5.886;2022-11-15T10:59:31;12.70;99.90
36800;DHT22;22752;51.960;5.886;2022-11-15T11:01:59;12.70;99.90
36800;DHT22;22752;51.960;5.886;2022-11-15T11:04:25;12.60;99.90
36800;DHT22;22752;51.960;5.886;2022-11-15T11:06:58;12.60;99.90
36800;DHT22;22752;51.960;5.886;2022-11-15T11:09:31;12.50;99.90
36800;DHT22;22752;51.960;5.886;2022-11-15T11:11:58;12.50;99.90
36800;DHT22;22752;51.960;5.886;2022-11-15T11:14:26;12.40;99.90
36800;DHT22;22752;51.960;5.886;2022-11-15T11:17:48;12.50;99.90
36800;DHT22;22752;51.960;5.886;2022-11-15T11:35:35;12.70;99.90
36800;DHT22;22752;51.960;5.886;2022-11-15T11:41:19;12.70;99.90
36800;DHT22;22752;51.960;5.886;2022-11-15T11:46:48;12.60;99.90
36800;DHT22;22752;51.960;5.886;2022-11-15T11:54:52;12.60;99.90
36800;DHT22;22752;51.960;5.886;2022-11-15T11:57:38;12.60;99.90
36800;DHT22;22752;51.960;5.886;2022-11-15T12:00:18;12.60;99.90
36800;DHT22;22752;51.960;5.886;2022-11-15T12:11:03;12.70;99.90
36800;DHT22;22752;51.960;5.886;2022-11-15T12:13:31;12.70;99.90
36800;DHT22;22752;51.960;5.886;2022-11-15T12:16:29;12.70;99.90
36800;DHT22;22752;51.960;5.886;2022-11-15T12:18:58;12.70;99.90
36800;DHT22;22752;51.960;5.886;2022-11-15T12:21:34;12.70;99.90
36800;DHT22;22752;51.960;5.886;2022-11-15T12:24:06;12.70;99.90
36800;DHT22;22752;51.960;5.886;2022-11-15T12:26:41;12.60;99.90
36800;DHT22;22752;51.960;5.886;2022-11-15T12:29:34;12.70;99.90
36800;DHT22;22752;51.960;5.886;2022-11-15T12:32:01;12.60;99.90
36800;DHT22;22752;51.960;5.886;2022-11-15T12:36:54;12.60;99.90
36800;DHT22;22752;51.960;5.886;2022-11-15T12:39:21;12.60;99.90
36800;DHT22;22752;51.960;5.886;2022-11-15T13:02:32;12.80;99.90
36800;DHT22;22752;51.960;5.886;2022-11-15T13:17:57;12.80;99.90
36800;DHT22;22752;51.960;5.886;2022-11-15T13:20:26;12.80;99.90
36800;DHT22;22752;51.960;5.886;2022-11-15T13:23:02;12.80;99.90
36800;DHT22;22752;51.960;5.886;2022-11-15T13:30:56;12.80;99.90
36800;DHT22;22752;51.960;5.886;2022-11-15T13:33:37;12.80;99.90
36800;DHT22;22752;51.960;5.886;2022-11-15T13:36:14;12.80;99.90
36800;DHT22;22752;51.960;5.886;2022-11-15T13:38:41;12.80;99.90
36800;DHT22;22752;51.960;5.886;2022-11-15T13:41:22;12.80;99.90
36800;DHT22;22752;51.960;5.886;2022-11-15T13:43:50;12.80;99.90
36800;DHT22;22752;51.960;5.886;2022-11-15T13:46:21;12.70;99.90
36800;DHT22;22752;51.960;5.886;2022-11-15T13:48:55;12.70;99.90
36800;DHT22;22752;51.960;5.886;2022-11-15T13:51:44;12.70;99.90
36800;DHT22;22752;51.960;5.886;2022-11-15T13:57:12;12.70;99.90
36800;DHT22;22752;51.960;5.886;2022-11-15T14:02:17;12.70;99.90
36800;DHT22;22752;51.960;5.886;2022-11-15T14:04:53;12.60;99.90
36800;DHT22;22752;51.960;5.886;2022-11-15T14:07:21;12.60;99.90
36800;DHT22;22752;51.960;5.886;2022-11-15T14:09:47;12.60;99.90
36800;DHT22;22752;51.960;5.886;2022-11-15T14:12:49;12.60;99.90
36800;DHT22;22752;51.960;5.886;2022-11-15T14:15:35;12.60;99.90
36800;DHT22;22752;51.960;5.886;2022-11-15T14:18:02;12.60;99.90
36800;DHT22;22752;51.960;5.886;2022-11-15T14:20:31;12.60;99.90
36800;DHT22;22752;51.960;5.886;2022-11-15T14:23:00;12.60;99.90
36800;DHT22;22752;51.960;5.886;2022-11-15T14:25:31;12.50;99.90
36800;DHT22;22752;51.960;5.886;2022-11-15T14:28:29;12.50;99.90
36800;DHT22;22752;51.960;5.886;2022-11-15T14:30:57;12.50;99.90
36800;DHT22;22752;51.960;5.886;2022-11-15T14:33:34;12.60;99.90
36800;DHT22;22752;51.960;5.886;2022-11-15T14:36:10;12.60;99.90
36800;DHT22;22752;51.960;5.886;2022-11-15T14:38:36;12.60;99.90
36800;DHT22;22752;51.960;5.886;2022-11-15T14:41:02;12.70;99.90
36800;DHT22;22752;51.960;5.886;2022-11-15T14:43:27;12.70;99.90
36800;DHT22;22752;51.960;5.886;2022-11-15T14:45:53;12.70;99.90
36800;DHT22;22752;51.960;5.886;2022-11-15T14:48:19;12.70;99.90
36800;DHT22;22752;51.960;5.886;2022-11-15T14:50:45;12.70;99.90
36800;DHT22;22752;51.960;5.886;2022-11-15T14:53:15;12.70;99.90
36800;DHT22;22752;51.960;5.886;2022-11-15T14:55:41;12.70;99.90
36800;DHT22;22752;51.960;5.886;2022-11-15T14:58:08;12.70;99.90
36800;DHT22;22752;51.960;5.886;2022-11-15T15:00:38;12.70;99.90
36800;DHT22;22752;51.960;5.886;2022-11-15T15:03:05;12.70;99.90
36800;DHT22;22752;51.960;5.886;2022-11-15T15:05:39;12.70;99.90
36800;DHT22;22752;51.960;5.886;2022-11-15T15:08:06;12.70;99.90
36800;DHT22;22752;51.960;5.886;2022-11-15T15:10:41;12.70;99.90
36800;DHT22;22752;51.960;5.886;2022-11-15T15:13:17;12.70;99.90
36800;DHT22;22752;51.960;5.886;2022-11-15T15:15:43;12.60;99.90
36800;DHT22;22752;51.960;5.886;2022-11-15T15:18:08;12.70;99.90
36800;DHT22;22752;51.960;5.886;2022-11-15T15:20:41;12.60;99.90
36800;DHT22;22752;51.960;5.886;2022-11-15T15:23:25;12.60;99.90
36800;DHT22;22752;51.960;5.886;2022-11-15T15:25:54;12.60;99.90
36800;DHT22;22752;51.960;5.886;2022-11-15T15:28:20;12.60;99.90
36800;DHT22;22752;51.960;5.886;2022-11-15T15:30:45;12.60;99.90
36800;DHT22;22752;51.960;5.886;2022-11-15T15:33:11;12.50;99.90
36800;DHT22;22752;51.960;5.886;2022-11-15T15:35:36;12.50;99.90
36800;DHT22;22752;51.960;5.886;2022-11-15T15:38:02;12.50;99.90
36800;DHT22;22752;51.960;5.886;2022-11-15T15:40:30;12.50;99.90
36800;DHT22;22752;51.960;5.886;2022-11-15T15:42:56;12.50;99.90
36800;DHT22;22752;51.960;5.886;2022-11-15T15:45:22;12.50;99.90
36800;DHT22;22752;51.960;5.886;2022-11-15T15:47:49;12.50;99.90
36800;DHT22;22752;51.960;5.886;2022-11-15T15:50:26;12.50;99.90
36800;DHT22;22752;51.960;5.886;2022-11-15T15:52:53;12.50;99.90
36800;DHT22;22752;51.960;5.886;2022-11-15T15:55:20;12.50;99.90
36800;DHT22;22752;51.960;5.886;2022-11-15T15:57:46;12.50;99.90
36800;DHT22;22752;51.960;5.886;2022-11-15T16:00:12;12.50;99.90
36800;DHT22;22752;51.960;5.886;2022-11-15T16:02:38;12.50;99.90
36800;DHT22;22752;51.960;5.886;2022-11-15T16:05:04;12.50;99.90
36800;DHT22;22752;51.960;5.886;2022-11-15T16:07:30;12.50;99.90
36800;DHT22;22752;51.960;5.886;2022-11-15T16:09:56;12.50;99.90
36800;DHT22;22752;51.960;5.886;2022-11-15T16:12:33;12.50;99.90
36800;DHT22;22752;51.960;5.886;2022-11-15T16:14:59;12.50;99.90
36800;DHT22;22752;51.960;5.886;2022-11-15T16:17:33;12.60;99.90
36800;DHT22;22752;51.960;5.886;2022-11-15T16:19:59;12.60;99.90
36800;DHT22;22752;51.960;5.886;2022-11-15T16:22:25;12.60;99.90
36800;DHT22;22752;51.960;5.886;2022-11-15T16:24:50;12.60;99.90
36800;DHT22;22752;51.960;5.886;2022-11-15T16:27:18;12.60;99.90
36800;DHT22;22752;51.960;5.886;2022-11-15T16:29:45;12.60;99.90
36800;DHT22;22752;51.960;5.886;2022-11-15T16:32:11;12.70;99.90
36800;DHT22;22752;51.960;5.886;2022-11-15T16:34:37;12.60;99.90
36800;DHT22;22752;51.960;5.886;2022-11-15T16:37:03;12.70;99.90
36800;DHT22;22752;51.960;5.886;2022-11-15T16:39:29;12.70;99.90
36800;DHT22;22752;51.960;5.886;2022-11-15T16:41:56;12.70;99.90
36800;DHT22;22752;51.960;5.886;2022-11-15T16:44:22;12.70;99.90
36800;DHT22;22752;51.960;5.886;2022-11-15T16:46:49;12.80;99.90
36800;DHT22;22752;51.960;5.886;2022-11-15T16:49:20;12.80;99.90
36800;DHT22;22752;51.960;5.886;2022-11-15T16:51:47;12.80;99.90
36800;DHT22;22752;51.960;5.886;2022-11-15T16:54:13;12.80;99.90
36800;DHT22;22752;51.960;5.886;2022-11-15T16:56:39;12.80;99.90
36800;DHT22;22752;51.960;5.886;2022-11-15T16:59:06;12.80;99.90
36800;DHT22;22752;51.960;5.886;2022-11-15T17:01:36;12.80;99.90
36800;DHT22;22752;51.960;5.886;2022-11-15T17:04:18;12.90;99.90
36800;DHT22;22752;51.960;5.886;2022-11-15T17:06:46;12.80;99.90
36800;DHT22;22752;51.960;5.886;2022-11-15T17:09:20;12.80;99.90
36800;DHT22;22752;51.960;5.886;2022-11-15T17:11:48;12.90;99.90
36800;DHT22;22752;51.960;5.886;2022-11-15T17:14:15;12.80;99.90
36800;DHT22;22752;51.960;5.886;2022-11-15T17:16:41;12.80;99.90
36800;DHT22;22752;51.960;5.886;2022-11-15T17:19:17;12.80;99.90
36800;DHT22;22752;51.960;5.886;2022-11-15T17:21:44;12.80;99.90
36800;DHT22;22752;51.960;5.886;2022-11-15T17:24:10;12.90;99.90
36800;DHT22;22752;51.960;5.886;2022-11-15T17:26:37;12.80;99.90
36800;DHT22;22752;51.960;5.886;2022-11-15T17:29:03;12.90;99.90
36800;DHT22;22752;51.960;5.886;2022-11-15T17:31:33;12.80;99.90
36800;DHT22;22752;51.960;5.886;2022-11-15T17:34:00;12.80;99.90
36800;DHT22;22752;51.960;5.886;2022-11-15T17:36:26;12.80;99.90
36800;DHT22;22752;51.960;5.886;2022-11-15T17:38:51;12.90;99.90
36800;DHT22;22752;51.960;5.886;2022-11-15T17:41:17;12.90;99.90
36800;DHT22;22752;51.960;5.886;2022-11-15T17:43:45;12.90;99.90
36800;DHT22;22752;51.960;5.886;2022-11-15T17:46:17;12.80;99.90
36800;DHT22;22752;51.960;5.886;2022-11-15T17:48:44;12.80;99.90
36800;DHT22;22752;51.960;5.886;2022-11-15T17:51:11;12.80;99.90
36800;DHT22;22752;51.960;5.886;2022-11-15T17:53:39;12.70;99.90
36800;DHT22;22752;51.960;5.886;2022-11-15T17:56:15;12.70;99.90
36800;DHT22;22752;51.960;5.886;2022-11-15T17:58:47;12.80;99.90
36800;DHT22;22752;51.960;5.886;2022-11-15T18:01:30;12.80;99.90
36800;DHT22;22752;51.960;5.886;2022-11-15T18:03:56;12.70;99.90
36800;DHT22;22752;51.960;5.886;2022-11-15T18:06:25;12.70;99.90